createdAt,value
2023-01-10T00:01:29.139Z,100275.25
2023-01-10T00:05:41.522Z,100275.46
2023-01-10T00:09:53.660Z,100288.52
2023-01-10T00:14:05.603Z,100309.48
2023-01-10T00:18:17.661Z,100319.91
2023-01-10T00:22:29.764Z,100330.34
2023-01-10T00:26:43.760Z,100342.16
2023-01-10T00:30:56.799Z,100355.90
2023-01-10T00:35:08.915Z,100355.92
2023-01-10T00:39:21.169Z,100354.02
2023-01-10T00:43:31.407Z,100351.23
2023-01-10T00:47:43.612Z,100358.83
2023-01-10T00:51:50.416Z,100357.80
2023-01-10T00:56:02.582Z,100357.77
2023-01-10T01:00:14.852Z,100362.30
2023-01-10T01:04:27.194Z,100379.11
2023-01-10T01:08:52.943Z,100391.29
2023-01-10T01:13:05.071Z,100412.81
2023-01-10T01:17:17.017Z,100422.16
2023-01-10T01:21:29.062Z,100427.73
2023-01-10T01:25:40.749Z,100424.79
2023-01-10T01:29:53.105Z,100432.58
2023-01-10T01:34:05.351Z,100443.27
2023-01-10T01:38:11.816Z,100448.66
2023-01-10T01:42:18.518Z,100456.11
2023-01-10T01:46:30.563Z,100458.90
2023-01-10T01:51:01.385Z,100459.59
2023-01-10T01:55:12.879Z,100462.40
2023-01-10T01:59:25.186Z,100468.30
2023-01-10T02:03:31.947Z,100473.14
2023-01-10T02:07:43.672Z,100480.77
2023-01-10T02:11:54.406Z,100489.45
2023-01-10T02:16:06.665Z,100490.33
2023-01-10T02:20:18.925Z,100492.42
2023-01-10T02:24:38.625Z,100495.55
2023-01-10T02:28:56.796Z,100507.18
2023-01-10T02:33:08.979Z,100506.33
2023-01-10T02:37:47.051Z,100511.89
2023-01-10T02:42:01.236Z,100510.33
2023-01-10T02:46:08.452Z,100503.73
2023-01-10T02:50:26.485Z,100507.16
2023-01-10T02:54:38.537Z,100515.45
2023-01-10T02:58:56.526Z,100523.92
2023-01-10T03:03:11.913Z,100525.83
2023-01-10T03:07:48.951Z,100523.36
2023-01-10T03:12:00.543Z,100523.85
2023-01-10T03:16:12.507Z,100530.25
2023-01-10T03:20:25.152Z,100539.46
2023-01-10T03:24:39.713Z,100545.04
2023-01-10T03:28:55.038Z,100548.52
2023-01-10T03:33:07.024Z,100542.96
2023-01-10T03:37:19.734Z,100550.57
2023-01-10T03:41:31.576Z,100558.38
2023-01-10T03:45:43.919Z,100564.92
2023-01-10T03:49:55.924Z,100561.25
2023-01-10T03:54:08.533Z,100560.66
2023-01-10T03:58:23.639Z,100565.26
2023-01-10T04:02:55.102Z,100572.05
2023-01-10T04:07:06.736Z,100583.02
2023-01-10T04:11:19.119Z,100592.74
2023-01-10T04:15:31.056Z,100597.60
2023-01-10T04:19:44.732Z,100607.50
2023-01-10T04:23:56.772Z,100618.27
2023-01-10T04:28:08.512Z,100632.34
2023-01-10T04:32:20.579Z,100642.02
2023-01-10T04:36:23.195Z,100651.34
2023-01-10T04:40:29.420Z,100667.98
2023-01-10T04:44:41.314Z,100677.17
2023-01-10T04:48:53.320Z,100690.48
2023-01-10T04:53:05.326Z,100702.08
2023-01-10T04:57:17.534Z,100708.80
2023-01-10T05:01:49.875Z,100723.00
2023-01-10T05:06:02.005Z,100731.67
2023-01-10T05:10:14.199Z,100740.00
2023-01-10T05:14:26.202Z,100748.85
2023-01-10T05:18:38.688Z,100757.19
2023-01-10T05:22:51.359Z,100759.60
2023-01-10T05:27:03.180Z,100765.85
2023-01-10T05:31:15.458Z,100768.58
2023-01-10T05:35:27.301Z,100772.34
2023-01-10T05:39:39.250Z,100774.02
2023-01-10T05:43:51.114Z,100787.39
2023-01-10T05:48:03.607Z,100788.16
2023-01-10T05:52:15.771Z,100796.34
2023-01-10T05:56:21.568Z,100806.21
2023-01-10T06:00:28.032Z,100809.80
2023-01-10T06:04:40.582Z,100810.25
2023-01-10T06:08:53.129Z,100817.98
2023-01-10T06:13:21.828Z,100839.13
2023-01-10T06:17:24.374Z,100849.04
2023-01-10T06:21:28.836Z,100859.50
2023-01-10T06:25:32.851Z,100862.10
2023-01-10T06:29:45.173Z,100872.39
2023-01-10T06:33:57.505Z,100878.44
2023-01-10T06:38:10.002Z,100873.40
2023-01-10T06:42:29.912Z,100891.14
2023-01-10T06:46:55.973Z,100900.88
2023-01-10T06:51:08.016Z,100906.14
2023-01-10T06:55:20.181Z,100915.60
2023-01-10T06:59:32.313Z,100924.66
2023-01-10T07:03:36.317Z,100932.69
2023-01-10T07:07:49.854Z,100941.05
2023-01-10T07:12:15.979Z,100955.30
2023-01-10T07:16:28.352Z,100960.86
2023-01-10T07:20:54.499Z,100969.70
2023-01-10T07:25:03.053Z,100969.69
2023-01-10T07:29:15.281Z,100975.57
2023-01-10T07:33:46.018Z,100982.70
2023-01-10T07:37:57.377Z,100989.25
2023-01-10T07:42:08.313Z,101001.41
2023-01-10T07:46:20.728Z,101007.97
2023-01-10T07:50:33.150Z,101017.17
2023-01-10T07:54:45.365Z,101024.84
2023-01-10T07:58:57.657Z,101032.63
2023-01-10T08:03:08.954Z,101038.52
2023-01-10T08:07:21.009Z,101044.05
2023-01-10T08:11:32.720Z,101040.00
2023-01-10T08:15:44.460Z,101039.93
2023-01-10T08:19:49.314Z,101043.92
2023-01-10T08:24:01.373Z,101055.41
2023-01-10T08:28:02.935Z,101062.58
2023-01-10T08:32:15.443Z,101066.63
2023-01-10T08:36:22.532Z,101067.44
2023-01-10T08:40:35.173Z,101072.59
2023-01-10T08:44:29.148Z,101093.61
2023-01-10T08:48:41.338Z,101097.93
2023-01-10T08:52:53.707Z,101108.90
2023-01-10T08:57:05.936Z,101115.09
2023-01-10T09:01:31.907Z,101124.70
2023-01-10T09:05:43.871Z,101131.31
2023-01-10T09:09:56.188Z,101135.39
2023-01-10T09:14:08.112Z,101138.30
2023-01-10T09:18:21.476Z,101148.02
2023-01-10T09:22:33.656Z,101148.97
2023-01-10T09:26:46.527Z,101154.98
2023-01-10T09:31:01.518Z,101164.44
2023-01-10T09:35:14.091Z,101174.05
2023-01-10T09:39:26.694Z,101184.08
2023-01-10T09:43:55.127Z,101181.48
2023-01-10T09:48:19.251Z,101181.55
2023-01-10T09:52:31.259Z,101185.95
2023-01-10T09:56:43.172Z,101181.32
2023-01-10T10:00:55.887Z,101185.86
2023-01-10T10:05:08.093Z,101180.84
2023-01-10T10:09:20.773Z,101184.55
2023-01-10T10:13:35.084Z,101183.31
2023-01-10T10:17:47.302Z,101183.82
2023-01-10T10:22:02.436Z,101182.73
2023-01-10T10:26:22.997Z,101198.51
2023-01-10T10:30:41.872Z,101205.66
2023-01-10T10:34:57.211Z,101210.37
2023-01-10T10:39:09.100Z,101211.83
2023-01-10T10:43:21.031Z,101213.27
2023-01-10T10:47:33.458Z,101213.88
2023-01-10T10:51:43.260Z,101215.77
2023-01-10T10:55:53.024Z,101224.33
2023-01-10T11:00:05.612Z,101223.98
2023-01-10T11:04:20.497Z,101230.79
2023-01-10T11:08:35.441Z,101237.17
2023-01-10T11:12:47.380Z,101236.52
2023-01-10T11:17:05.879Z,101236.70
2023-01-10T11:21:20.996Z,101238.63
2023-01-10T11:25:36.874Z,101237.60
2023-01-10T11:29:47.115Z,101245.01
2023-01-10T11:33:59.771Z,101251.53
2023-01-10T11:38:25.718Z,101254.27
2023-01-10T11:42:37.828Z,101260.23
2023-01-10T11:47:02.172Z,101261.96
2023-01-10T11:51:17.456Z,101267.56
2023-01-10T11:55:29.759Z,101273.72
2023-01-10T11:59:41.733Z,101272.03
2023-01-10T12:03:59.626Z,101279.04
2023-01-10T12:08:12.271Z,101283.55
2023-01-10T12:12:24.973Z,101285.30
2023-01-10T12:16:35.576Z,101288.77
2023-01-10T12:20:42.075Z,101298.53
2023-01-10T12:24:59.758Z,101294.27
2023-01-10T12:29:12.025Z,101296.61
2023-01-10T12:33:24.521Z,101299.98
2023-01-10T12:37:42.352Z,101305.56
2023-01-10T12:42:25.894Z,101307.01
2023-01-10T12:47:04.694Z,101314.92
2023-01-10T12:51:27.034Z,101323.55
2023-01-10T12:55:39.128Z,101325.41
2023-01-10T12:59:52.174Z,101335.11
2023-01-10T13:04:04.349Z,101337.30
2023-01-10T13:08:16.999Z,101336.77
2023-01-10T13:12:23.987Z,101346.77
2023-01-10T13:16:57.696Z,101353.39
2023-01-10T13:21:08.372Z,101362.11
2023-01-10T13:25:20.877Z,101365.60
2023-01-10T13:29:39.729Z,101365.42
2023-01-10T13:33:58.053Z,101360.41
2023-01-10T13:38:10.000Z,101365.04
2023-01-10T13:42:19.532Z,101372.77
2023-01-10T13:46:31.633Z,101376.98
2023-01-10T13:50:37.392Z,101373.25
2023-01-10T13:54:55.283Z,101365.45
2023-01-10T13:59:24.981Z,101373.36
2023-01-10T14:03:37.008Z,101382.60
2023-01-10T14:07:44.085Z,101385.06
2023-01-10T14:11:56.474Z,101377.30
2023-01-10T14:16:08.965Z,101383.44
2023-01-10T14:20:46.809Z,101394.30
2023-01-10T14:25:12.936Z,101401.83
2023-01-10T14:29:24.642Z,101406.39
2023-01-10T14:33:31.053Z,101405.88
2023-01-10T14:37:41.593Z,101413.89
2023-01-10T14:42:10.435Z,101415.27
2023-01-10T14:46:29.679Z,101411.47
2023-01-10T14:50:41.559Z,101409.70
2023-01-10T14:54:56.772Z,101414.75
2023-01-10T14:59:24.653Z,101415.56
2023-01-10T15:03:55.537Z,101422.44
2023-01-10T15:08:07.053Z,101426.63
2023-01-10T15:12:19.219Z,101432.91
2023-01-10T15:16:28.826Z,101431.03
2023-01-10T15:20:36.070Z,101435.58
2023-01-10T15:24:47.011Z,101445.52
2023-01-10T15:28:59.715Z,101445.85
2023-01-10T15:33:09.024Z,101455.77
2023-01-10T15:37:22.558Z,101458.27
2023-01-10T15:41:37.793Z,101466.05
2023-01-10T15:45:48.487Z,101466.30
2023-01-10T15:50:06.931Z,101476.34
2023-01-10T15:54:31.462Z,101483.04
2023-01-10T15:58:43.750Z,101490.52
2023-01-10T16:03:09.774Z,101490.89
2023-01-10T16:07:22.055Z,101486.65
2023-01-10T16:11:34.095Z,101494.12
2023-01-10T16:15:45.652Z,101495.64
2023-01-10T16:19:57.857Z,101502.76
2023-01-10T16:24:10.955Z,101512.73
2023-01-10T16:28:24.039Z,101510.78
2023-01-10T16:32:28.691Z,101519.66
2023-01-10T16:36:55.532Z,101525.13
2023-01-10T16:41:10.759Z,101531.26
2023-01-10T16:45:22.709Z,101533.45
2023-01-10T16:49:34.809Z,101543.72
2023-01-10T16:58:12.744Z,101540.79
2023-01-10T17:02:39.130Z,101538.16
2023-01-10T17:06:53.818Z,101531.95
2023-01-10T17:11:06.808Z,101540.73
2023-01-10T17:15:38.651Z,101542.80
2023-01-10T17:19:50.276Z,101538.50
2023-01-10T17:24:02.830Z,101540.23
2023-01-10T17:28:14.710Z,101537.77
2023-01-10T17:32:27.189Z,101541.55
2023-01-10T17:36:58.140Z,101541.64
2023-01-10T17:41:09.928Z,101549.86
2023-01-10T17:45:22.443Z,101548.00
2023-01-10T17:49:34.432Z,101550.86
2023-01-10T17:53:46.886Z,101544.80
2023-01-10T17:57:58.893Z,101545.36
2023-01-10T18:02:11.713Z,101540.14
2023-01-10T18:06:30.808Z,101538.00
2023-01-10T18:10:43.169Z,101536.95
2023-01-10T18:14:58.872Z,101533.64
2023-01-10T18:19:10.762Z,101532.91
2023-01-10T18:23:15.804Z,101530.45
2023-01-10T18:27:28.487Z,101527.48
2023-01-10T18:31:40.994Z,101534.52
2023-01-10T18:35:52.081Z,101542.23
2023-01-10T18:40:04.512Z,101543.38
2023-01-10T18:44:16.904Z,101540.23
2023-01-10T18:48:32.270Z,101542.06
2023-01-10T18:52:43.396Z,101545.50
2023-01-10T18:57:14.625Z,101544.21
2023-01-10T19:01:26.242Z,101545.33
2023-01-10T19:05:34.174Z,101536.12
2023-01-10T19:09:46.658Z,101542.67
2023-01-10T19:13:59.525Z,101545.73
2023-01-10T19:18:12.180Z,101547.42
2023-01-10T19:22:18.935Z,101546.79
2023-01-10T19:26:30.849Z,101552.41
2023-01-10T19:30:46.921Z,101551.61
2023-01-10T19:35:01.488Z,101544.58
2023-01-10T19:39:13.103Z,101548.99
2023-01-10T19:43:25.491Z,101552.75
2023-01-10T19:47:37.593Z,101552.80
2023-01-10T19:51:50.296Z,101556.80
2023-01-10T19:56:02.635Z,101555.42
2023-01-10T20:00:14.907Z,101561.56
2023-01-10T20:04:27.054Z,101564.07
2023-01-10T20:08:57.666Z,101571.15
2023-01-10T20:13:10.259Z,101577.11
2023-01-10T20:17:22.776Z,101582.90
2023-01-10T20:21:34.813Z,101577.89
2023-01-10T20:25:47.260Z,101579.81
2023-01-10T20:30:00.084Z,101585.52
2023-01-10T20:34:04.958Z,101576.48
2023-01-10T20:38:16.983Z,101579.34
2023-01-10T20:42:47.960Z,101573.77
2023-01-10T20:46:54.086Z,101568.89
2023-01-10T20:51:00.357Z,101567.11
2023-01-10T20:55:12.764Z,101571.22
2023-01-10T20:59:26.089Z,101574.41
2023-01-10T21:03:38.324Z,101578.64
2023-01-10T21:08:21.719Z,101577.38
2023-01-10T21:12:32.977Z,101578.39
2023-01-10T21:16:45.315Z,101585.91
2023-01-10T21:20:57.719Z,101583.98
2023-01-10T21:25:10.296Z,101582.31
2023-01-10T21:29:22.479Z,101578.48
2023-01-10T21:33:34.913Z,101578.75
2023-01-10T21:37:47.411Z,101579.56
2023-01-10T21:41:50.543Z,101580.52
2023-01-10T21:46:03.115Z,101578.19
2023-01-10T21:50:33.956Z,101583.09
2023-01-10T21:54:45.041Z,101582.69
2023-01-10T21:58:57.032Z,101589.07
2023-01-10T22:03:09.041Z,101591.88
2023-01-10T22:07:21.420Z,101591.73
2023-01-10T22:11:33.399Z,101585.50
2023-01-10T22:15:45.571Z,101580.64
2023-01-10T22:19:57.489Z,101581.16
2023-01-10T22:24:09.539Z,101583.80
2023-01-10T22:28:21.871Z,101581.02
2023-01-10T22:32:28.455Z,101581.21
2023-01-10T22:36:46.591Z,101576.81
2023-01-10T22:40:52.983Z,101568.39
2023-01-10T22:45:04.929Z,101569.65
2023-01-10T22:49:11.213Z,101573.02
2023-01-10T22:53:18.331Z,101578.27
2023-01-10T22:57:33.030Z,101583.83
2023-01-10T23:01:45.431Z,101582.50
2023-01-10T23:05:57.489Z,101581.42
2023-01-10T23:10:28.398Z,101577.19
2023-01-10T23:14:41.441Z,101566.38
2023-01-10T23:18:43.598Z,101565.55
2023-01-10T23:22:55.993Z,101567.73
2023-01-10T23:27:21.972Z,101569.09
2023-01-10T23:31:34.000Z,101570.43
2023-01-10T23:35:46.636Z,101568.31
2023-01-10T23:39:58.616Z,101561.34
2023-01-10T23:44:10.482Z,101559.70
2023-01-10T23:48:22.718Z,101566.33
2023-01-10T23:52:34.953Z,101565.80
2023-01-10T23:56:47.151Z,101564.02
